Time;durP1;ratioP1;P1;durP2;ratioP2;P2;SDS_P1;SDS_P2;PMS_P1;PMS_P2;Temp;Humidity;BMP_temperature;BMP_pressure;BME280_temperature;BME280_humidity;BME280_pressure;Samples;Min_cycle;Max_cycle;Signal;HPM_P1;HPM_P2
2023/12/29 00:02:01;;;;;;;3.88;2.45;;;;;;;9.07;70.33;98646.84;5051082;27;104329;-67
2023/12/29 00:04:30;;;;;;;3.47;2.40;;;;;;;9.10;70.29;98641.25;5047048;27;103223;-67
2023/12/29 00:06:58;;;;;;;2.95;1.98;;;;;;;9.09;70.14;98635.13;5072329;27;102604;-67
2023/12/29 00:09:30;;;;;;;5.45;2.53;;;;;;;9.02;70.68;98634.09;5042627;27;104394;-67
2023/12/29 00:11:58;;;;;;;3.60;2.42;;;;;;;9.05;70.33;98628.53;5066824;27;103405;-67
2023/12/29 00:14:26;;;;;;;3.75;2.38;;;;;;;9.08;70.19;98636.13;5062022;27;102876;-67
2023/12/29 00:16:57;;;;;;;5.43;2.30;;;;;;;9.07;69.93;98637.09;5069061;27;102679;-67
2023/12/29 00:19:25;;;;;;;3.60;2.00;;;;;;;9.08;70.03;98638.75;5066895;27;103883;-67
2023/12/29 00:21:54;;;;;;;4.45;2.38;;;;;;;9.06;69.81;98635.44;5072143;27;104057;-67
2023/12/29 00:24:22;;;;;;;4.50;2.40;;;;;;;9.09;69.82;98635.13;5065765;27;103203;-67
2023/12/29 00:26:50;;;;;;;4.70;2.53;;;;;;;9.10;70.05;98639.44;5064724;27;102664;-68
2023/12/29 00:29:18;;;;;;;3.97;2.63;;;;;;;9.09;70.05;98616.63;5045153;27;102780;-67
2023/12/29 00:31:46;;;;;;;4.22;2.70;;;;;;;9.15;69.46;98625.72;5069785;27;103947;-67
2023/12/29 00:34:14;;;;;;;5.10;2.90;;;;;;;9.18;69.36;98621.94;5074043;27;103154;-67
2023/12/29 00:36:42;;;;;;;3.95;2.70;;;;;;;9.19;69.49;98629.69;5046851;27;102697;-67
2023/12/29 00:39:12;;;;;;;6.85;2.70;;;;;;;9.14;69.10;98637.28;5069369;27;102816;-68
2023/12/29 00:41:42;;;;;;;4.47;2.60;;;;;;;9.19;69.45;98623.59;5047333;27;104210;-67
2023/12/29 00:44:11;;;;;;;3.53;2.30;;;;;;;9.23;69.10;98624.94;5048034;27;104364;-67
2023/12/29 00:46:39;;;;;;;3.88;2.63;;;;;;;9.19;69.23;98626.25;5066260;27;102855;-67
2023/12/29 00:49:07;;;;;;;4.05;2.60;;;;;;;9.10;69.58;98620.09;5070333;27;102675;-67
2023/12/29 00:51:40;;;;;;;3.80;2.60;;;;;;;9.20;68.98;98627.91;5048733;27;103375;-67
2023/12/29 00:54:12;;;;;;;4.60;2.53;;;;;;;9.23;68.88;98630.22;5042860;27;103784;-67
2023/12/29 00:56:41;;;;;;;5.32;2.90;;;;;;;9.21;69.13;98634.81;5049343;27;103015;-67
2023/12/29 00:59:09;;;;;;;4.50;2.67;;;;;;;9.24;68.87;98639.81;5047586;27;102906;-67
2023/12/29 01:01:40;;;;;;;4.47;2.58;;;;;;;9.18;69.09;98635.16;5047729;27;104535;-67
2023/12/29 01:04:08;;;;;;;4.85;2.60;;;;;;;9.25;68.84;98636.19;5046947;27;103273;-67
2023/12/29 01:06:36;;;;;;;4.05;2.63;;;;;;;9.22;68.70;98645.25;5067435;27;103413;-67
2023/12/29 01:09:08;;;;;;;4.25;2.70;;;;;;;9.25;68.72;98649.41;5064671;27;104609;-67
2023/12/29 01:11:39;;;;;;;5.38;3.15;;;;;;;9.26;68.53;98645.75;5047107;27;103248;-67
2023/12/29 01:14:08;;;;;;;3.90;2.33;;;;;;;9.22;68.43;98633.84;5071886;27;103268;-67
2023/12/29 01:16:38;;;;;;;3.83;2.50;;;;;;;9.26;68.27;98637.81;5054790;27;103147;-67
2023/12/29 01:19:08;;;;;;;4.45;2.70;;;;;;;9.27;68.25;98634.19;5046609;27;102737;-67
2023/12/29 01:21:39;;;;;;;5.95;3.08;;;;;;;9.31;68.12;98638.16;5071586;27;104059;-67
2023/12/29 01:24:07;;;;;;;4.55;3.10;;;;;;;9.31;68.12;98627.59;5052263;27;104310;-67
2023/12/29 01:26:39;;;;;;;4.43;2.70;;;;;;;9.35;67.96;98628.91;5053784;27;102673;-66
2023/12/29 01:29:08;;;;;;;4.55;2.70;;;;;;;9.36;68.01;98630.56;5066291;27;104145;-67
2023/12/29 01:31:36;;;;;;;5.07;3.20;;;;;;;9.35;67.64;98628.91;5055842;27;103225;-67
2023/12/29 01:34:04;;;;;;;4.10;2.88;;;;;;;9.43;68.09;98625.47;5051734;27;104169;-67
2023/12/29 01:36:34;;;;;;;4.82;2.50;;;;;;;9.40;67.69;98625.78;5050209;27;102808;-67
2023/12/29 01:39:03;;;;;;;5.72;2.65;;;;;;;9.42;67.41;98623.81;5051998;27;103915;-67
2023/12/29 01:41:31;;;;;;;5.50;3.03;;;;;;;9.43;67.63;98631.59;5067612;27;103649;-67
2023/12/29 01:44:21;;;;;;;5.20;3.17;;;;;;;9.38;67.16;98622.47;5066921;27;103267;-67
2023/12/29 01:46:56;;;;;;;4.65;3.05;;;;;;;9.39;67.41;98618.84;5046112;27;102770;-67
2023/12/29 01:49:23;;;;;;;4.28;2.88;;;;;;;9.41;67.30;98622.16;5051513;27;104388;-67
2023/12/29 01:51:56;;;;;;;3.70;2.67;;;;;;;9.39;67.26;98616.22;5071288;27;104212;-67
2023/12/29 01:54:28;;;;;;;4.50;2.83;;;;;;;9.37;67.48;98608.44;5051231;27;103211;-67
2023/12/29 01:57:00;;;;;;;5.03;2.75;;;;;;;9.43;67.31;98618.38;5047758;27;102725;-67
2023/12/29 01:59:31;;;;;;;4.38;2.72;;;;;;;9.39;67.32;98617.06;5052492;27;104307;-67
2023/12/29 02:01:59;;;;;;;5.07;3.10;;;;;;;9.43;66.97;98615.72;5055407;27;104048;-67
2023/12/29 02:04:29;;;;;;;4.13;2.65;;;;;;;9.48;67.07;98611.75;5049021;27;104326;-67
2023/12/29 02:06:57;;;;;;;6.82;2.88;;;;;;;9.50;66.93;98609.78;5070183;27;102663;-67
2023/12/29 02:09:26;;;;;;;5.38;2.88;;;;;;;9.43;67.14;98605.16;5067148;27;103787;-68
2023/12/29 02:11:55;;;;;;;5.38;2.95;;;;;;;9.42;67.32;98600.03;5047362;27;103251;-68
2023/12/29 02:14:24;;;;;;;6.45;3.15;;;;;;;9.45;67.23;98597.88;5047159;27;103220;-67
2023/12/29 02:17:01;;;;;;;5.40;3.15;;;;;;;9.49;67.23;98602.84;5047086;27;102765;-67
2023/12/29 02:19:39;;;;;;;4.20;2.83;;;;;;;9.44;67.13;98596.22;5048335;27;102798;-67
2023/12/29 02:22:09;;;;;;;5.43;3.30;;;;;;;9.49;67.27;98593.09;5046806;27;104495;-67
2023/12/29 02:24:38;;;;;;;5.03;2.97;;;;;;;9.55;67.31;98591.59;5052406;27;104010;-68
2023/12/29 02:27:15;;;;;;;4.60;3.05;;;;;;;9.52;67.04;98587.47;5051501;27;102896;-68
2023/12/29 02:29:49;;;;;;;4.35;3.17;;;;;;;9.57;67.15;98590.44;5065484;27;104117;-67
2023/12/29 02:32:19;;;;;;;;;;;;;;;9.43;67.46;98589.28;5063218;27;103437;-67
2023/12/29 02:34:49;;;;;;;5.40;3.13;;;;;;;9.53;66.97;98583.03;5052403;27;104276;-68
2023/12/29 02:37:18;;;;;;;4.47;2.88;;;;;;;9.56;67.20;98590.63;5051542;27;102842;-68
2023/12/29 02:39:46;;;;;;;4.93;2.70;;;;;;;9.53;67.14;98581.19;5068352;27;104277;-68
2023/12/29 02:42:16;;;;;;;5.10;3.08;;;;;;;9.54;67.19;98590.78;5049124;27;104088;-68
2023/12/29 02:44:44;;;;;;;5.07;3.10;;;;;;;9.58;66.96;98586.00;5054086;27;103456;-67
2023/12/29 02:47:13;;;;;;;5.30;2.90;;;;;;;9.54;66.77;98574.09;5067698;27;102922;-67
2023/12/29 02:49:41;;;;;;;4.25;2.92;;;;;;;9.56;66.99;98580.03;5052098;27;102693;-67
2023/12/29 02:52:10;;;;;;;4.18;2.63;;;;;;;9.58;66.73;98580.72;5069946;27;103232;-67
2023/12/29 02:54:38;;;;;;;5.85;3.10;;;;;;;9.60;66.69;98589.28;5055859;27;104351;-67
2023/12/29 02:57:06;;;;;;;4.32;3.15;;;;;;;9.57;66.84;98589.63;5042597;27;102810;-66
2023/12/29 02:59:37;;;;;;;5.55;2.95;;;;;;;9.56;67.19;98580.03;5070822;27;104002;-67
2023/12/29 03:02:06;;;;;;;5.13;2.90;;;;;;;9.49;67.38;98563.19;5048740;27;103595;-67
2023/12/29 03:04:35;;;;;;;6.07;3.40;;;;;;;9.44;67.51;98564.50;5068898;27;104827;-67
2023/12/29 03:07:03;;;;;;;6.65;3.45;;;;;;;9.52;67.29;98568.16;5066247;27;102676;-67
2023/12/29 03:09:31;;;;;;;4.50;3.33;;;;;;;9.44;67.92;98582.19;5071748;27;103448;-67
2023/12/29 03:11:59;;;;;;;5.15;2.60;;;;;;;9.47;67.89;98581.84;5062790;27;103332;-67
2023/12/29 03:14:27;;;;;;;4.32;2.70;;;;;;;9.56;67.97;98577.41;5046778;27;103515;-66
2023/12/29 03:16:57;;;;;;;4.72;2.90;;;;;;;9.43;68.28;98573.44;5054457;27;103891;-66
2023/12/29 03:19:28;;;;;;;6.25;2.83;;;;;;;9.49;68.60;98568.47;5051536;27;104286;-67
2023/12/29 03:21:56;;;;;;;4.40;2.90;;;;;;;9.46;68.79;98551.94;5076179;27;104096;-68
2023/12/29 03:24:24;;;;;;;4.32;2.85;;;;;;;9.44;68.84;98559.19;5048082;27;104102;-67
2023/12/29 03:26:53;;;;;;;4.60;2.90;;;;;;;9.39;68.68;98556.25;5051764;27;103321;-68
2023/12/29 03:29:21;;;;;;;4.20;3.03;;;;;;;9.36;68.89;98559.19;5046990;27;102992;-67
2023/12/29 03:31:49;;;;;;;4.18;2.88;;;;;;;9.34;69.10;98548.00;5065315;27;103283;-67
2023/12/29 03:34:19;;;;;;;6.45;3.35;;;;;;;9.37;69.19;98549.47;5051450;27;103982;-67
2023/12/29 03:36:50;;;;;;;5.00;3.05;;;;;;;9.38;68.82;98554.59;5052718;27;102786;-68
2023/12/29 03:39:18;;;;;;;6.00;3.10;;;;;;;9.33;69.43;98556.06;5044424;27;102690;-67
2023/12/29 03:41:47;;;;;;;4.63;3.10;;;;;;;9.37;68.96;98549.47;5051269;27;103317;-67
2023/12/29 03:44:15;;;;;;;4.35;3.10;;;;;;;9.22;69.92;98546.63;5043589;27;104223;-67
2023/12/29 03:46:44;;;;;;;4.90;2.90;;;;;;;9.27;69.60;98544.34;5068654;27;102713;-68
2023/12/29 03:49:12;;;;;;;4.07;2.72;;;;;;;9.33;69.07;98546.31;5055036;27;102864;-67
2023/12/29 03:51:42;;;;;;;4.40;3.03;;;;;;;9.28;69.71;98551.28;5066649;27;104279;-68
2023/12/29 03:54:10;;;;;;;4.65;3.35;;;;;;;9.17;70.20;98572.72;5051300;27;104270;-68
2023/12/29 03:56:38;;;;;;;5.03;2.72;;;;;;;9.18;70.28;98569.09;5066697;27;103097;-68
2023/12/29 03:59:09;;;;;;;4.50;2.90;;;;;;;9.26;69.87;98561.16;5049073;27;102864;-68
2023/12/29 04:01:37;;;;;;;6.05;2.92;;;;;;;9.27;69.95;98557.53;5047888;27;103603;-67
2023/12/29 04:04:05;;;;;;;3.80;2.53;;;;;;;9.31;69.66;98550.13;5053638;27;103313;-69
2023/12/29 04:06:34;;;;;;;3.63;2.30;;;;;;;9.29;70.07;98552.94;5049729;27;102745;-68
2023/12/29 04:09:04;;;;;;;6.45;2.45;;;;;;;9.31;69.92;98550.13;5070691;27;103316;-67
2023/12/29 04:11:32;;;;;;;4.00;2.53;;;;;;;9.34;70.00;98550.63;5047351;27;102967;-67
2023/12/29 04:14:00;;;;;;;4.60;2.78;;;;;;;9.27;70.21;98546.97;5045635;27;104158;-67
2023/12/29 04:16:29;;;;;;;3.97;2.30;;;;;;;9.23;70.90;98537.72;5042087;27;102748;-67
2023/12/29 04:18:57;;;;;;;4.47;2.60;;;;;;;9.27;70.73;98546.97;5048115;27;104502;-67
2023/12/29 04:21:25;;;;;;;4.35;2.70;;;;;;;9.21;71.25;98548.47;5050558;27;104492;-68
2023/12/29 04:23:53;;;;;;;4.00;2.60;;;;;;;9.19;71.66;98546.97;5063676;27;103254;-67
2023/12/29 04:26:22;;;;;;;4.38;2.58;;;;;;;9.17;72.01;98541.84;5057292;27;102774;-67
2023/12/29 04:28:51;;;;;;;4.03;2.50;;;;;;;9.15;71.75;98543.00;5044319;22;103339;-67
2023/12/29 04:31:32;;;;;;;3.67;2.42;;;;;;;9.20;71.81;98546.00;5002315;28;103933;-66
2023/12/29 04:34:00;;;;;;;5.25;2.45;;;;;;;9.13;72.10;98551.91;5005128;28;103193;-68
2023/12/29 04:36:28;;;;;;;3.80;2.40;;;;;;;9.16;71.90;98542.00;5004083;28;102714;-66
2023/12/29 04:38:57;;;;;;;3.90;2.40;;;;;;;9.16;71.97;98549.91;5005793;28;103844;-67
2023/12/29 04:41:26;;;;;;;4.65;2.58;;;;;;;9.12;72.13;98552.09;5004804;28;103972;-68
2023/12/29 04:43:54;;;;;;;4.50;2.88;;;;;;;9.19;71.76;98549.63;4991247;28;104428;-68
2023/12/29 04:46:22;;;;;;;4.95;2.42;;;;;;;9.17;72.30;98547.13;4985745;28;103192;-68
2023/12/29 04:48:50;;;;;;;4.07;2.75;;;;;;;9.12;72.16;98550.25;5010166;28;102670;-67
2023/12/29 04:51:18;;;;;;;6.10;2.75;;;;;;;9.15;72.45;98561.50;5007646;28;103312;-67
2023/12/29 04:53:46;;;;;;;3.72;2.60;;;;;;;9.16;72.34;98560.50;5009222;28;103181;-67
2023/12/29 04:56:14;;;;;;;4.35;2.53;;;;;;;9.10;73.33;98568.09;4989809;28;102805;-67
2023/12/29 04:58:43;;;;;;;3.83;2.38;;;;;;;9.19;73.03;98570.75;5010362;28;102804;-66
2023/12/29 05:01:11;;;;;;;3.78;2.80;;;;;;;9.08;73.81;98570.06;5011508;28;103267;-66
2023/12/29 05:03:39;;;;;;;4.00;2.60;;;;;;;9.13;73.73;98572.22;5010821;28;103210;-66
2023/12/29 05:06:07;;;;;;;3.70;2.42;;;;;;;9.09;74.28;98565.59;5013960;28;102802;-67
2023/12/29 05:08:35;;;;;;;3.97;2.53;;;;;;;9.16;73.83;98565.78;5015923;28;103797;-67
2023/12/29 05:11:03;;;;;;;3.72;2.42;;;;;;;9.10;73.87;98556.69;5004162;28;104449;-66
2023/12/29 05:13:31;;;;;;;3.40;2.20;;;;;;;9.10;73.87;98561.97;4990982;28;104261;-67
2023/12/29 05:16:07;;;;;;;4.00;2.75;;;;;;;9.16;73.84;98568.41;5009719;28;102968;-66
2023/12/29 05:18:35;;;;;;;3.78;2.40;;;;;;;9.17;73.72;98578.00;4987197;28;102691;-66
2023/12/29 05:21:03;;;;;;;4.82;2.50;;;;;;;9.20;73.85;98572.41;5007027;28;104203;-66
2023/12/29 05:23:31;;;;;;;3.88;2.30;;;;;;;9.16;73.96;98577.19;4990926;28;103934;-67
2023/12/29 05:25:59;;;;;;;3.47;2.30;;;;;;;9.21;73.90;98563.47;4992450;28;102685;-66
2023/12/29 05:28:27;;;;;;;3.92;2.92;;;;;;;9.15;73.91;98556.22;4990119;28;103974;-66
2023/12/29 05:30:56;;;;;;;3.42;2.25;;;;;;;9.13;74.14;98562.47;5005730;28;103796;-67
2023/12/29 05:33:25;;;;;;;4.75;2.70;;;;;;;9.03;75.35;98551.22;5011286;27;102570;-66
2023/12/29 05:35:53;;;;;;;3.95;2.70;;;;;;;9.00;75.29;98556.00;5001492;28;103759;-66
2023/12/29 05:38:21;;;;;;;4.18;2.60;;;;;;;8.98;75.71;98558.00;5011806;28;103137;-66
2023/12/29 05:40:52;;;;;;;4.47;2.75;;;;;;;8.93;75.54;98569.03;5007421;28;103252;-67
2023/12/29 05:43:20;;;;;;;5.63;2.53;;;;;;;8.96;75.89;98560.78;4995158;28;103411;-67
2023/12/29 05:45:48;;;;;;;4.07;2.70;;;;;;;8.94;75.96;98560.13;5013117;28;102918;-67
2023/12/29 05:48:16;;;;;;;4.55;2.42;;;;;;;8.98;75.94;98564.09;5015146;28;104269;-66
2023/12/29 05:50:46;;;;;;;3.92;2.67;;;;;;;9.00;76.21;98569.22;5005258;28;103820;-67
2023/12/29 05:53:15;;;;;;;4.97;2.90;;;;;;;8.97;76.09;98567.72;5012406;28;103398;-66
2023/12/29 05:55:44;;;;;;;5.60;2.47;;;;;;;9.03;75.87;98567.09;4989922;28;103081;-66
2023/12/29 05:58:12;;;;;;;3.75;2.50;;;;;;;8.95;76.54;98553.84;5008658;28;104024;-66
2023/12/29 06:00:40;;;;;;;4.38;2.83;;;;;;;8.99;76.36;98559.63;5008087;28;103237;-66
2023/12/29 06:03:09;;;;;;;3.22;2.28;;;;;;;8.98;76.77;98569.38;5007797;28;103289;-66
2023/12/29 06:05:39;;;;;;;3.97;2.63;;;;;;;8.96;76.89;98577.47;5011325;28;103221;-66
2023/12/29 06:08:12;;;;;;;4.80;2.88;;;;;;;8.93;77.33;98571.66;5007030;28;103210;-66
2023/12/29 06:10:39;;;;;;;4.28;2.60;;;;;;;8.93;77.14;98571.66;4989120;28;103306;-67
2023/12/29 06:13:07;;;;;;;4.45;2.70;;;;;;;8.90;77.92;98572.00;4990414;28;104188;-67
2023/12/29 06:15:36;;;;;;;4.40;2.67;;;;;;;8.96;77.30;98572.19;5006652;28;102696;-66
2023/12/29 06:18:05;;;;;;;5.00;3.10;;;;;;;8.94;77.72;98571.50;5009490;28;102786;-67
2023/12/29 06:20:34;;;;;;;4.35;2.53;;;;;;;8.87;77.83;98565.22;4994561;28;103328;-66
2023/12/29 06:23:02;;;;;;;4.63;2.83;;;;;;;8.85;77.78;98563.72;5013728;28;103253;-66
2023/12/29 06:25:32;;;;;;;4.40;2.60;;;;;;;8.89;77.46;98565.06;5011729;28;103794;-66
2023/12/29 06:28:06;;;;;;;3.63;2.20;;;;;;;8.81;77.54;98565.03;5011150;28;102709;-67
2023/12/29 06:30:35;;;;;;;4.35;2.92;;;;;;;8.76;77.94;98566.34;5004239;28;104216;-66
2023/12/29 06:33:03;;;;;;;4.57;2.85;;;;;;;8.72;78.35;98570.28;5011077;28;103344;-67
2023/12/29 06:35:32;;;;;;;5.68;3.00;;;;;;;8.68;78.15;98570.78;5006939;28;102606;-67
2023/12/29 06:38:00;;;;;;;4.65;2.83;;;;;;;8.72;77.52;98562.34;4988193;28;103754;-67
2023/12/29 06:40:28;;;;;;;4.05;2.75;;;;;;;8.72;77.67;98554.44;5010509;28;103255;-67
2023/12/29 06:42:58;;;;;;;3.92;2.40;;;;;;;8.71;77.04;98550.16;5015241;28;103239;-67
2023/12/29 06:45:26;;;;;;;4.88;2.28;;;;;;;8.70;77.51;98548.50;5008887;28;103062;-67
2023/12/29 06:47:54;;;;;;;5.78;2.65;;;;;;;8.62;77.43;98545.84;4988683;28;104259;-66
2023/12/29 06:50:23;;;;;;;3.97;2.60;;;;;;;8.56;77.93;98543.81;4992426;28;104019;-67
2023/12/29 06:52:51;;;;;;;3.80;2.25;;;;;;;8.63;77.71;98550.09;5003366;28;103798;-66
2023/12/29 06:55:19;;;;;;;4.28;2.55;;;;;;;8.65;77.67;98548.16;4985807;28;102817;-67
2023/12/29 06:57:47;;;;;;;4.53;2.53;;;;;;;8.68;77.13;98553.09;5012633;28;103324;-66
2023/12/29 07:00:18;;;;;;;4.55;2.58;;;;;;;8.66;77.52;98560.38;4988543;28;104601;-66
2023/12/29 07:02:48;;;;;;;3.25;2.25;;;;;;;8.68;77.79;98557.56;4989323;28;103213;-67
2023/12/29 07:05:16;;;;;;;3.45;2.22;;;;;;;8.67;78.04;98551.44;5010629;28;102742;-67
2023/12/29 07:07:46;;;;;;;3.08;2.10;;;;;;;8.70;77.87;98566.13;5009503;28;102840;-66
2023/12/29 07:10:15;;;;;;;4.88;2.75;;;;;;;8.72;77.54;98567.63;4990909;28;104188;-67
2023/12/29 07:12:44;;;;;;;4.53;2.72;;;;;;;8.69;77.87;98551.31;5011008;28;103066;-67
2023/12/29 07:15:14;;;;;;;3.83;2.35;;;;;;;8.73;78.16;98550.81;5009729;28;103021;-67
2023/12/29 07:17:44;;;;;;;3.97;2.65;;;;;;;8.81;77.48;98547.38;4986024;28;102888;-66
2023/12/29 07:20:13;;;;;;;5.47;2.85;;;;;;;8.81;77.84;98536.00;5005075;28;103880;-66
2023/12/29 07:22:41;;;;;;;5.13;2.30;;;;;;;8.79;77.71;98539.63;4985728;28;105876;-66
2023/12/29 07:25:11;;;;;;;5.32;2.50;;;;;;;8.84;77.64;98551.50;4993604;28;103518;-66
2023/12/29 07:27:39;;;;;;;4.07;2.55;;;;;;;8.83;78.17;98547.19;5007938;28;102733;-66
2023/12/29 07:30:12;;;;;;;5.00;2.45;;;;;;;8.84;77.59;98547.03;5010152;28;103254;-66
2023/12/29 07:32:40;;;;;;;4.05;2.30;;;;;;;8.89;77.77;98550.03;4992003;28;102967;-66
2023/12/29 07:35:16;;;;;;;3.47;2.13;;;;;;;8.92;77.53;98544.44;5011418;28;102749;-66
2023/12/29 07:37:44;;;;;;;3.90;2.40;;;;;;;8.91;77.64;98548.06;4989773;28;102701;-66
2023/12/29 07:48:42;;;;;;;3.80;2.30;;;;;;;8.86;77.81;98539.78;5040079;22;102883;-72
2023/12/29 07:58:57;;;;;;;3.83;2.40;;;;;;;8.98;77.78;98542.97;5022928;22;103260;-70
2023/12/29 08:01:25;;;;;;;3.22;2.20;;;;;;;9.01;77.81;98555.84;5008982;28;103192;-70
2023/12/29 08:03:53;;;;;;;3.85;2.38;;;;;;;9.01;77.61;98547.91;4988078;28;104537;-71
2023/12/29 08:06:22;;;;;;;3.25;2.00;;;;;;;9.06;77.44;98550.06;4987710;28;104018;-71
2023/12/29 08:08:51;;;;;;;3.35;2.10;;;;;;;9.06;77.49;98556.19;5007206;28;103216;-70
2023/12/29 08:11:19;;;;;;;3.92;2.33;;;;;;;9.00;77.57;98546.28;5003497;28;103073;-70
2023/12/29 08:13:49;;;;;;;4.05;2.50;;;;;;;9.09;77.48;98552.38;5007949;28;102954;-71
2023/12/29 08:16:22;;;;;;;4.35;2.38;;;;;;;9.11;77.26;98553.88;4990735;28;104040;-72
2023/12/29 08:18:51;;;;;;;2.97;2.10;;;;;;;9.19;77.21;98554.91;4984398;27;102696;-71
2023/12/29 08:21:23;;;;;;;4.60;2.45;;;;;;;9.18;77.38;98553.25;4975081;28;103153;-71
2023/12/29 08:23:51;;;;;;;3.80;2.40;;;;;;;9.12;77.25;98547.63;4995161;28;102998;-71
2023/12/29 08:26:19;;;;;;;5.57;2.25;;;;;;;9.23;76.59;98557.03;4976102;28;104294;-79
2023/12/29 08:28:49;;;;;;;6.88;2.35;;;;;;;9.20;76.72;98556.56;4971089;28;104332;-78
2023/12/29 08:31:22;;;;;;;3.58;1.90;;;;;;;9.25;76.60;98560.34;4998504;28;102759;-78
2023/12/29 08:33:50;;;;;;;5.00;2.63;;;;;;;9.27;76.58;98568.13;5004504;28;103977;-78
2023/12/29 08:36:22;;;;;;;4.25;2.88;;;;;;;9.31;76.40;98565.97;4987857;28;104223;-78
2023/12/29 08:38:52;;;;;;;5.70;2.45;;;;;;;9.34;76.50;98561.19;4990327;28;102834;-78
2023/12/29 08:41:20;;;;;;;3.60;2.15;;;;;;;9.32;76.01;98573.75;5014718;28;102660;-80
2023/12/29 08:43:49;;;;;;;3.53;2.25;;;;;;;9.34;76.26;98558.56;5013719;28;103736;-79
2023/12/29 08:46:16;;;;;;;4.57;2.20;;;;;;;9.38;76.05;98565.16;5007883;28;103367;-80
2023/12/29 08:48:46;;;;;;;5.05;2.70;;;;;;;9.42;76.00;98569.13;5008840;28;103371;-80
2023/12/29 08:51:14;;;;;;;4.20;2.63;;;;;;;9.33;76.33;98571.91;5008260;28;102560;-80
2023/12/29 08:53:43;;;;;;;3.45;2.00;;;;;;;9.41;75.80;98570.13;5008720;28;104072;-80
2023/12/29 08:56:14;;;;;;;3.88;2.22;;;;;;;9.35;76.03;98569.94;4991402;28;102692;-80
2023/12/29 08:58:42;;;;;;;3.83;2.53;;;;;;;9.43;76.08;98578.72;5010427;28;103316;-77
2023/12/29 09:01:10;;;;;;;4.45;2.40;;;;;;;9.49;76.23;98581.69;5009002;28;102621;-79
2023/12/29 09:03:39;;;;;;;3.65;2.10;;;;;;;9.41;76.58;98574.59;4988298;28;103772;-79
2023/12/29 09:06:10;;;;;;;3.90;2.70;;;;;;;9.45;76.49;98574.06;4986628;28;103587;-79
2023/12/29 09:08:38;;;;;;;3.92;2.33;;;;;;;9.50;76.16;98580.69;5006776;28;103376;-77
2023/12/29 09:11:06;;;;;;;3.80;2.40;;;;;;;9.50;76.19;98573.59;4988273;28;102727;-79
2023/12/29 09:13:37;;;;;;;4.18;2.60;;;;;;;9.54;75.94;98574.09;5010281;28;103837;-80
2023/12/29 09:16:06;;;;;;;3.13;2.20;;;;;;;9.60;75.52;98578.72;4989712;28;105728;-80
2023/12/29 09:18:34;;;;;;;3.55;2.25;;;;;;;9.61;75.62;98580.38;4989423;28;102686;-81
2023/12/29 09:21:04;;;;;;;4.35;2.40;;;;;;;9.71;75.23;98573.09;4986840;28;102755;-81
2023/12/29 09:23:34;;;;;;;3.20;2.15;;;;;;;9.74;75.17;98574.59;4990283;28;103688;-81
2023/12/29 09:26:03;;;;;;;2.92;2.00;;;;;;;9.75;75.05;98571.78;4991482;28;104159;-81
2023/12/29 09:28:37;;;;;;;3.45;2.30;;;;;;;9.81;74.86;98585.34;4987794;28;102950;-82
2023/12/29 09:31:04;;;;;;;3.60;2.13;;;;;;;9.90;74.63;98579.03;5002288;28;102597;-79
2023/12/29 09:33:33;;;;;;;4.53;2.50;;;;;;;9.92;74.38;98583.19;5012216;28;103894;-79
2023/12/29 09:36:01;;;;;;;3.42;2.13;;;;;;;10.05;74.13;98587.97;5011458;28;104129;-78
2023/12/29 09:38:29;;;;;;;4.32;1.98;;;;;;;10.13;73.87;98595.88;4996297;28;104394;-79
2023/12/29 09:41:02;;;;;;;3.60;2.20;;;;;;;10.38;73.23;98593.22;5009913;28;102650;-79
2023/12/29 09:43:32;;;;;;;4.03;2.10;;;;;;;10.35;73.06;98590.91;4983582;28;104457;-79
2023/12/29 09:46:00;;;;;;;4.28;2.42;;;;;;;10.34;72.89;98591.88;5011334;28;104055;-79
2023/12/29 09:48:29;;;;;;;3.20;1.95;;;;;;;10.41;72.99;98597.34;5008411;28;103360;-79
2023/12/29 09:50:57;;;;;;;4.22;2.25;;;;;;;10.33;72.74;98600.81;4991275;28;102718;-79
2023/12/29 09:53:27;;;;;;;3.97;2.10;;;;;;;10.36;73.03;98603.16;5007477;28;103981;-79
2023/12/29 09:55:56;;;;;;;7.43;1.95;;;;;;;10.38;72.82;98603.81;5009067;28;103985;-80
2023/12/29 09:58:40;;;;;;;3.40;1.92;;;;;;;10.45;72.78;98604.81;5010944;28;103298;-80
2023/12/29 10:01:13;;;;;;;3.17;1.65;;;;;;;10.52;72.87;98609.41;4991312;28;102648;-79
2023/12/29 10:03:41;;;;;;;3.35;2.00;;;;;;;10.49;72.67;98612.41;5002352;28;102968;-73
2023/12/29 10:06:14;;;;;;;3.25;2.03;;;;;;;10.68;72.85;98603.25;5005904;28;103274;-78
2023/12/29 10:08:46;;;;;;;3.60;2.13;;;;;;;10.77;72.58;98603.03;5005690;28;104319;-78
2023/12/29 10:11:16;;;;;;;3.10;1.98;;;;;;;10.88;71.84;98598.34;5006778;28;102604;-76
2023/12/29 10:13:47;;;;;;;2.60;1.80;;;;;;;11.01;71.28;98598.63;4990054;28;104343;-76
2023/12/29 10:16:28;;;;;;;3.20;1.80;;;;;;;11.28;70.42;98596.50;4986393;28;103332;-77
2023/12/29 10:19:12;;;;;;;2.90;1.77;;;;;;;11.16;70.69;98590.78;5002801;28;103300;-78
2023/12/29 10:22:03;;;;;;;2.80;1.77;;;;;;;11.13;70.35;98588.44;4989933;28;102736;-86
2023/12/29 10:27:46;;;;;;;3.17;1.80;;;;;;;11.38;69.99;98578.50;5003155;28;104674;-78
2023/12/29 10:30:27;;;;;;;;;;;;;;;11.22;69.59;98571.50;4993381;28;104364;-80
2023/12/29 10:33:05;;;;;;;2.40;1.70;;;;;;;11.46;69.67;98580.28;4992766;28;102795;-78
2023/12/29 10:35:38;;;;;;;2.20;1.52;;;;;;;11.37;69.36;98565.44;4991868;28;102676;-77
2023/12/29 10:38:21;;;;;;;2.88;1.83;;;;;;;11.24;69.50;98566.00;5005148;28;103342;-77
2023/12/29 10:41:19;;;;;;;3.00;2.00;;;;;;;11.52;69.36;98562.84;4979335;28;103219;-78
2023/12/29 10:44:07;;;;;;;3.92;1.77;;;;;;;11.70;68.08;98566.03;5007969;28;119093;-78
2023/12/29 10:46:37;;;;;;;3.38;1.80;;;;;;;11.64;68.50;98555.31;5005519;28;103872;-81
2023/12/29 10:49:45;;;;;;;3.67;1.85;;;;;;;11.68;67.73;98544.13;5007756;28;103369;-80
2023/12/29 10:52:36;;;;;;;2.03;1.50;;;;;;;11.73;66.93;98541.78;4978287;28;104238;-77
2023/12/29 10:55:08;;;;;;;4.15;1.70;;;;;;;11.86;66.87;98548.31;5006246;28;102700;-80
2023/12/29 10:57:36;;;;;;;2.95;1.48;;;;;;;11.98;65.91;98543.41;5006838;28;103715;-74
2023/12/29 11:00:06;;;;;;;2.50;1.60;;;;;;;12.09;64.82;98543.81;4998810;28;103742;-74
2023/12/29 11:02:35;;;;;;;1.67;1.40;;;;;;;12.30;63.80;98533.47;5000803;28;103066;-75
2023/12/29 11:05:05;;;;;;;2.08;1.38;;;;;;;12.31;64.66;98525.31;4978325;28;102712;-81
2023/12/29 11:07:35;;;;;;;2.28;1.45;;;;;;;12.55;64.45;98531.31;5002785;28;102776;-76
2023/12/29 11:10:10;;;;;;;1.85;1.40;;;;;;;12.43;63.59;98528.31;4998474;28;104075;-75
2023/12/29 11:12:40;;;;;;;2.42;1.75;;;;;;;12.55;63.89;98531.31;4983893;28;104387;-76
2023/12/29 11:15:10;;;;;;;2.22;1.63;;;;;;;12.60;63.47;98518.31;4989024;28;102829;-75
2023/12/29 11:17:40;;;;;;;5.03;2.10;;;;;;;12.73;63.37;98512.34;5004583;28;103863;-79
2023/12/29 11:20:14;;;;;;;2.28;1.40;;;;;;;12.64;62.92;98522.25;5001542;28;103215;-83
2023/12/29 11:22:42;;;;;;;;;;;;;;;12.61;62.39;98519.97;5005362;28;103487;-78
2023/12/29 11:25:15;;;;;;;2.92;1.60;;;;;;;12.67;62.05;98516.56;4986156;28;102703;-80
2023/12/29 11:27:46;;;;;;;1.92;1.50;;;;;;;12.96;61.94;98517.50;5002200;28;104347;-76
2023/12/29 11:30:16;;;;;;;2.88;1.70;;;;;;;13.03;61.70;98517.59;4983880;28;104286;-78
2023/12/29 11:32:54;;;;;;;2.85;1.63;;;;;;;13.24;61.07;98514.13;5001604;28;103237;-77
2023/12/29 11:35:28;;;;;;;2.28;1.50;;;;;;;13.15;60.34;98508.09;4986702;28;102641;-78
2023/12/29 11:38:20;;;;;;;2.88;1.80;;;;;;;13.24;60.09;98511.44;5003349;28;103691;-75
2023/12/29 11:40:59;;;;;;;3.50;1.65;;;;;;;13.40;60.07;98508.56;4985935;28;104233;-74
2023/12/29 11:43:27;;;;;;;2.08;1.50;;;;;;;13.57;58.99;98505.63;4982563;28;104564;-74
2023/12/29 11:45:56;;;;;;;2.20;1.30;;;;;;;13.57;58.55;98502.97;4998605;28;102708;-74
2023/12/29 11:48:58;;;;;;;2.42;1.50;;;;;;;13.49;58.63;98500.47;5003736;28;103994;-74
2023/12/29 11:51:35;;;;;;;2.38;1.30;;;;;;;13.62;58.02;98495.25;4996131;28;104594;-74
2023/12/29 11:54:06;;;;;;;2.25;1.65;;;;;;;13.58;58.53;98494.81;4980403;28;104302;-74
2023/12/29 11:56:40;;;;;;;3.88;1.75;;;;;;;13.72;57.25;98490.41;4977760;28;103079;-74
2023/12/29 11:59:18;;;;;;;1.85;1.30;;;;;;;14.00;56.56;98486.91;4998367;28;104037;-74
2023/12/29 12:01:50;;;;;;;2.15;1.50;;;;;;;13.58;57.59;98493.97;4998524;28;104485;-73
2023/12/29 12:04:41;;;;;;;2.03;1.38;;;;;;;13.47;56.50;98486.50;4983426;28;103581;-73
2023/12/29 12:07:16;;;;;;;2.35;1.50;;;;;;;13.62;56.28;98484.59;4999990;28;102671;-75